Time;durP1;ratioP1;P1;durP2;ratioP2;P2;SDS_P1;SDS_P2;PMS_P1;PMS_P2;Temp;Humidity;BMP_temperature;BMP_pressure;BME280_temperature;BME280_humidity;BME280_pressure;Samples;Min_cycle;Max_cycle;Signal;HPM_P1;HPM_P2
2022/05/27 00:00:17;;;;;;;3.43;2.77;;;;;;;25.83;37.19;97009.03;5114046;28;20379;-26
2022/05/27 00:02:43;;;;;;;3.80;2.10;;;;;;;25.88;36.83;97002.69;5113716;28;20028;-26
2022/05/27 00:05:10;;;;;;;3.83;1.95;;;;;;;25.86;36.94;97008.75;5113859;28;20382;-26
2022/05/27 00:07:35;;;;;;;5.05;2.40;;;;;;;25.82;36.80;97007.53;5113759;28;20073;-26
2022/05/27 00:10:01;;;;;;;4.25;2.35;;;;;;;25.82;37.06;97013.84;5113933;28;20024;-26
2022/05/27 00:12:27;;;;;;;5.88;2.60;;;;;;;25.88;36.93;97003.44;5113738;28;20023;-27
2022/05/27 00:14:52;;;;;;;4.32;2.47;;;;;;;25.94;36.58;97012.50;5113678;28;20032;-27
2022/05/27 00:17:18;;;;;;;5.35;2.38;;;;;;;25.88;36.94;97005.47;5113809;28;20024;-27
2022/05/27 00:19:43;;;;;;;4.43;2.80;;;;;;;25.75;37.03;97004.03;5113956;28;20128;-27
2022/05/27 00:22:09;;;;;;;3.90;2.47;;;;;;;25.84;36.99;97000.16;5113353;28;20080;-26
2022/05/27 00:24:36;;;;;;;3.25;2.47;;;;;;;25.82;36.50;96999.19;5113649;28;20395;-27
2022/05/27 00:27:02;;;;;;;3.97;2.20;;;;;;;25.79;36.86;96997.44;5113471;28;20019;-27
2022/05/27 00:29:28;;;;;;;5.85;2.20;;;;;;;25.78;36.81;97005.03;5113700;28;20023;-27
2022/05/27 00:31:53;;;;;;;3.50;2.20;;;;;;;25.80;37.03;96998.97;5113453;28;20020;-26
2022/05/27 00:34:19;;;;;;;5.13;2.40;;;;;;;25.88;36.71;97006.22;5116381;28;20378;-27
2022/05/27 00:36:44;;;;;;;3.97;2.45;;;;;;;25.86;36.60;97005.97;5117328;28;20110;-27
2022/05/27 00:39:10;;;;;;;5.13;2.45;;;;;;;25.85;36.96;97004.47;5117452;28;20031;-27
2022/05/27 00:41:35;;;;;;;4.13;2.40;;;;;;;25.85;36.47;97007.25;5117150;28;20429;-26
2022/05/27 00:44:01;;;;;;;4.93;2.55;;;;;;;25.87;36.88;97015.81;5117440;28;20118;-26
2022/05/27 00:46:30;;;;;;;3.05;2.40;;;;;;;25.98;36.33;97012.97;5117363;28;20027;-27
2022/05/27 00:49:05;;;;;;;4.45;2.35;;;;;;;25.82;36.80;96999.19;5117180;28;20043;-27
2022/05/27 00:51:34;;;;;;;3.80;2.55;;;;;;;25.77;36.87;97006.28;5117248;28;20364;-27
2022/05/27 00:54:22;;;;;;;4.78;2.25;;;;;;;25.76;36.94;97007.56;5117216;28;20024;-26
2022/05/27 00:56:54;;;;;;;3.25;2.20;;;;;;;25.86;36.98;97014.31;5116745;28;20507;-26
2022/05/27 00:59:30;;;;;;;5.70;2.35;;;;;;;25.80;36.87;97005.28;5117068;28;20486;-28
2022/05/27 01:01:56;;;;;;;4.90;2.58;;;;;;;25.84;36.97;96997.38;5116991;28;20063;-27
2022/05/27 01:04:23;;;;;;;5.18;2.60;;;;;;;25.87;37.15;96984.50;5116801;28;20022;-26
2022/05/27 01:06:48;;;;;;;4.18;2.17;;;;;;;25.84;36.68;96972.38;5116886;28;20081;-27
2022/05/27 01:09:14;;;;;;;2.13;1.92;;;;;;;25.84;36.85;96961.28;5098419;28;20031;-27
2022/05/27 01:11:57;;;;;;;4.65;2.10;;;;;;;25.86;36.94;96947.63;5116879;28;20019;-27
2022/05/27 01:14:31;;;;;;;4.43;2.63;;;;;;;25.80;37.10;96944.16;5116596;28;20030;-26
2022/05/27 01:17:30;;;;;;;3.78;2.10;;;;;;;25.80;37.01;96932.28;5116488;28;20080;-27
2022/05/27 01:20:23;;;;;;;5.35;2.45;;;;;;;25.81;37.17;96928.97;5116626;28;20027;-27
2022/05/27 01:23:16;;;;;;;5.25;2.40;;;;;;;25.77;37.30;96917.38;5116641;28;20031;-26
2022/05/27 01:26:10;;;;;;;6.43;2.22;;;;;;;25.81;37.21;96915.09;5116489;28;20140;-27
2022/05/27 01:28:42;;;;;;;6.25;3.17;;;;;;;25.89;36.78;96921.59;5116406;28;20042;-27
2022/05/27 01:31:28;;;;;;;3.67;2.53;;;;;;;25.90;36.88;96919.56;5116617;28;20012;-27
2022/05/27 01:34:09;;;;;;;3.83;2.33;;;;;;;25.94;36.96;96912.47;5116295;28;20357;-27
2022/05/27 01:36:46;;;;;;;4.68;2.47;;;;;;;25.81;37.08;96906.00;5116310;28;20027;-27
2022/05/27 01:39:39;;;;;;;4.18;2.25;;;;;;;25.77;37.41;96909.06;5116202;28;20496;-26
2022/05/27 01:42:05;;;;;;;;;;;;;;;25.86;37.19;96902.41;5116490;28;20024;-27
2022/05/27 01:45:20;;;;;;;4.25;2.53;;;;;;;25.91;37.00;96901.63;5115959;28;19908;-26
2022/05/27 01:47:45;;;;;;;3.80;2.25;;;;;;;25.88;37.17;96903.41;5033497;28;20128;-27
2022/05/27 01:50:38;;;;;;;5.38;2.75;;;;;;;25.92;37.14;96895.56;5033693;28;20469;-27
2022/05/27 01:53:26;;;;;;;5.35;2.33;;;;;;;25.69;37.22;96899.78;4997600;28;20063;-27
2022/05/27 01:56:20;;;;;;;4.90;2.42;;;;;;;25.85;37.13;96895.34;5033644;28;20057;-27
2022/05/27 01:58:56;;;;;;;5.80;2.55;;;;;;;25.94;36.83;96893.00;4993807;28;20042;-27
2022/05/27 02:01:39;;;;;;;4.38;2.17;;;;;;;25.94;36.56;96887.44;4994284;28;20026;-27
2022/05/27 02:04:15;;;;;;;4.38;2.30;;;;;;;25.84;37.07;96891.81;4993804;28;20069;-27
2022/05/27 02:06:46;;;;;;;6.65;2.70;;;;;;;25.89;37.20;96893.81;4993780;28;20513;-26
2022/05/27 02:09:22;;;;;;;3.47;2.33;;;;;;;25.92;36.66;96897.56;4993847;28;20069;-27
2022/05/27 02:11:52;;;;;;;6.40;2.88;;;;;;;25.82;36.94;96899.19;4993533;28;20110;-27
2022/05/27 02:14:26;;;;;;;3.30;2.30;;;;;;;25.81;37.05;96894.88;4993685;28;20422;-27
2022/05/27 02:17:01;;;;;;;6.47;2.90;;;;;;;25.84;36.88;96911.25;4993846;28;20030;-27
2022/05/27 02:19:36;;;;;;;3.88;2.20;;;;;;;25.85;36.98;96915.53;5066007;28;20040;-26
2022/05/27 02:22:43;;;;;;;3.45;2.50;;;;;;;25.82;37.01;96922.16;5074963;28;20142;-27
2022/05/27 02:25:14;;;;;;;4.18;2.47;;;;;;;25.79;36.91;96920.41;5032637;28;20036;-27
2022/05/27 02:28:13;;;;;;;5.20;2.40;;;;;;;25.81;36.91;96928.22;5032961;28;20036;-27
2022/05/27 02:30:43;;;;;;;4.90;2.80;;;;;;;25.92;36.96;96933.69;5032692;28;20029;-27
2022/05/27 02:36:36;;;;;;;4.45;2.65;;;;;;;25.80;37.25;96924.69;5033189;28;20440;-27
2022/05/27 02:39:02;;;;;;;5.80;2.58;;;;;;;25.82;37.07;96927.72;5032502;28;20112;-27
2022/05/27 02:41:38;;;;;;;6.40;2.67;;;;;;;25.84;37.17;96916.81;5032441;28;20036;-27
2022/05/27 02:44:03;;;;;;;5.53;2.45;;;;;;;25.88;36.95;96919.31;5032530;28;20460;-27
2022/05/27 02:46:35;;;;;;;5.63;2.38;;;;;;;25.91;36.90;96919.06;5032451;28;20069;-27
2022/05/27 02:49:00;;;;;;;7.95;3.00;;;;;;;25.86;37.00;96925.41;5032473;28;20037;-27
2022/05/27 02:51:37;;;;;;;5.47;2.80;;;;;;;25.87;37.18;96920.59;5032295;28;20026;-27
2022/05/27 02:54:08;;;;;;;5.38;2.55;;;;;;;25.90;36.94;96925.13;5032048;28;20025;-26
2022/05/27 02:56:41;;;;;;;6.22;2.88;;;;;;;25.84;37.57;96919.59;5070164;28;20036;-27
2022/05/27 02:59:10;;;;;;;5.25;2.60;;;;;;;25.83;37.53;96920.88;5114769;28;20077;-27
2022/05/27 03:01:36;;;;;;;6.45;2.65;;;;;;;25.76;37.33;96927.75;5114406;28;20050;-26
2022/05/27 03:04:04;;;;;;;4.78;2.65;;;;;;;25.80;37.51;96926.72;5114522;28;20019;-27
2022/05/27 03:06:54;;;;;;;9.10;2.90;;;;;;;25.82;37.07;96943.63;5114442;28;20026;-27
2022/05/27 03:09:34;;;;;;;3.70;2.80;;;;;;;25.87;37.27;96948.38;5114456;28;20020;-27
2022/05/27 03:12:06;;;;;;;5.18;2.45;;;;;;;25.81;37.17;96954.00;5114283;28;20456;-26
2022/05/27 03:15:07;;;;;;;5.20;2.70;;;;;;;25.81;37.48;96956.00;5114572;28;20032;-27
2022/05/27 03:17:43;;;;;;;6.75;2.97;;;;;;;25.83;37.59;96964.59;5114410;28;20027;-27
2022/05/27 03:20:21;;;;;;;5.25;2.70;;;;;;;25.79;37.64;96964.84;5114222;28;20054;-27
2022/05/27 03:23:14;;;;;;;7.70;2.88;;;;;;;25.81;37.62;96970.66;5114278;28;20042;-26
2022/05/27 03:25:49;;;;;;;;;;;;;;;25.82;37.59;96974.94;5114475;28;20030;-27
2022/05/27 03:28:23;;;;;;;5.05;3.25;;;;;;;25.79;37.31;96975.97;5114131;28;19916;-26
2022/05/27 03:31:02;;;;;;;4.95;2.70;;;;;;;25.82;37.35;96976.97;5114148;28;20134;-27
2022/05/27 03:33:39;;;;;;;5.53;2.95;;;;;;;25.77;37.68;96984.81;5114323;28;20027;-27
2022/05/27 03:36:42;;;;;;;6.30;2.70;;;;;;;25.71;38.17;96998.00;5114066;28;20116;-27
2022/05/27 03:39:21;;;;;;;5.60;3.10;;;;;;;25.73;37.82;96994.69;5072470;28;20032;-27
2022/05/27 03:42:08;;;;;;;5.45;2.72;;;;;;;25.72;37.75;96999.50;5113922;28;20372;-27
2022/05/27 03:44:34;;;;;;;7.50;2.90;;;;;;;25.72;37.71;96996.72;5114111;28;20394;-27
2022/05/27 03:47:01;;;;;;;11.52;3.25;;;;;;;25.70;37.98;96992.97;5113862;28;20453;-26
2022/05/27 03:49:27;;;;;;;15.30;3.72;;;;;;;25.66;38.06;96984.13;5113860;28;20030;-27
2022/05/27 03:52:05;;;;;;;11.00;3.55;;;;;;;25.61;38.41;96973.81;5113702;28;20016;-27
2022/05/27 03:54:31;;;;;;;9.32;3.33;;;;;;;25.65;38.08;96971.50;5113857;28;20030;-27
2022/05/27 03:56:57;;;;;;;11.65;3.70;;;;;;;25.64;37.99;96970.00;5113421;28;20051;-27
2022/05/27 03:59:24;;;;;;;8.98;3.10;;;;;;;25.69;38.27;96960.88;5114106;28;20054;-27
2022/05/27 04:01:52;;;;;;;12.23;3.60;;;;;;;25.68;38.20;96949.03;5113644;28;20077;-26
2022/05/27 04:04:20;;;;;;;13.40;3.15;;;;;;;25.58;38.20;96949.81;5113785;28;20020;-27
2022/05/27 04:06:47;;;;;;;7.15;3.33;;;;;;;25.58;38.36;96938.72;5113634;28;20099;-27
2022/05/27 04:09:13;;;;;;;10.45;3.42;;;;;;;25.58;38.41;96933.16;5116583;28;20023;-26
2022/05/27 04:11:39;;;;;;;8.55;3.10;;;;;;;25.53;38.50;96914.50;5117939;28;20020;-27
2022/05/27 04:14:05;;;;;;;9.20;3.05;;;;;;;25.42;38.78;96916.06;5117862;28;20015;-27
2022/05/27 04:16:31;;;;;;;9.30;3.15;;;;;;;25.52;38.54;96919.28;5118114;28;20370;-27
2022/05/27 04:18:56;;;;;;;7.35;3.67;;;;;;;25.58;38.61;96920.03;5117678;28;20034;-27
2022/05/27 04:21:23;;;;;;;6.72;2.85;;;;;;;25.55;38.28;96911.97;5117692;28;20546;-26
2022/05/27 04:23:48;;;;;;;8.93;3.65;;;;;;;25.50;38.53;96909.97;5117726;28;20019;-26
2022/05/27 04:26:14;;;;;;;7.30;3.17;;;;;;;25.60;38.48;96919.47;5117825;28;20520;-26
2022/05/27 04:28:40;;;;;;;7.05;3.20;;;;;;;25.52;38.34;96926.88;5117431;28;20518;-26
2022/05/27 04:31:05;;;;;;;8.63;3.28;;;;;;;25.62;38.10;96928.09;5117788;28;20023;-26
2022/05/27 04:33:31;;;;;;;5.00;3.15;;;;;;;25.64;38.17;96933.88;5117457;28;20020;-27
2022/05/27 04:35:59;;;;;;;6.70;3.33;;;;;;;25.64;38.20;96936.66;5117470;28;20035;-26
2022/05/27 04:38:25;;;;;;;7.50;3.15;;;;;;;25.52;38.37;96926.88;5117382;28;20479;-26
2022/05/27 04:40:51;;;;;;;7.82;3.10;;;;;;;25.48;38.50;96927.13;5117227;28;20031;-26
2022/05/27 04:43:17;;;;;;;8.23;3.03;;;;;;;25.63;38.29;96926.81;5117416;28;20540;-27
2022/05/27 04:45:43;;;;;;;7.93;3.08;;;;;;;25.57;38.40;96924.06;5117344;28;20031;-26
2022/05/27 04:48:09;;;;;;;4.63;2.78;;;;;;;25.61;38.32;96918.25;5117329;28;20060;-27
2022/05/27 04:50:35;;;;;;;10.15;3.20;;;;;;;25.59;38.47;96924.28;5117359;28;20026;-26
2022/05/27 04:53:02;;;;;;;9.30;3.67;;;;;;;25.43;39.07;96916.84;5117254;28;20526;-26
2022/05/27 04:55:30;;;;;;;5.68;3.08;;;;;;;25.55;38.71;96921.03;5099166;28;20046;-26
2022/05/27 04:57:57;;;;;;;8.02;3.60;;;;;;;25.54;38.18;96921.56;5117088;28;20047;-26
2022/05/27 05:00:24;;;;;;;5.78;2.72;;;;;;;25.63;38.27;96919.25;5116784;28;20023;-27
2022/05/27 05:02:50;;;;;;;5.70;3.47;;;;;;;25.50;38.73;96916.28;5116912;28;20483;-27
2022/05/27 05:05:18;;;;;;;5.25;3.03;;;;;;;25.58;38.21;96920.03;5116872;28;20038;-27
2022/05/27 05:07:51;;;;;;;6.57;2.85;;;;;;;25.52;38.63;96922.06;5116908;28;20058;-27
2022/05/27 05:10:20;;;;;;;9.05;3.45;;;;;;;25.62;38.32;96917.75;5116831;28;20084;-27
2022/05/27 05:12:46;;;;;;;5.72;3.40;;;;;;;25.55;38.46;96914.75;5117037;28;20019;-27
2022/05/27 05:15:13;;;;;;;5.05;2.75;;;;;;;25.66;38.30;96923.03;5098424;28;20027;-26
2022/05/27 05:17:39;;;;;;;6.45;3.33;;;;;;;25.63;38.22;96924.03;5118050;27;20027;-27
2022/05/27 05:20:06;;;;;;;4.10;3.10;;;;;;;25.59;38.31;96923.56;5122938;27;20094;-26
2022/05/27 05:22:31;;;;;;;5.18;3.63;;;;;;;25.58;39.25;96922.03;5135055;27;20122;-27
2022/05/27 05:24:57;;;;;;;7.18;3.00;;;;;;;25.61;38.93;96924.56;5120152;27;20102;-26
2022/05/27 05:27:26;;;;;;;9.95;3.20;;;;;;;25.53;39.14;96918.03;5114529;28;20102;-27
2022/05/27 05:29:55;;;;;;;5.22;2.70;;;;;;;25.53;38.90;96912.47;5114211;28;20055;-26
2022/05/27 05:32:22;;;;;;;6.72;2.90;;;;;;;25.53;39.06;96908.94;5114405;28;20039;-27
2022/05/27 05:34:48;;;;;;;6.13;2.83;;;;;;;25.55;39.09;96906.41;5114421;28;20027;-27
2022/05/27 05:37:15;;;;;;;7.80;3.30;;;;;;;25.59;39.33;96901.34;5127782;27;20027;-26
2022/05/27 05:39:40;;;;;;;11.20;2.83;;;;;;;25.58;38.83;96905.38;5134754;27;20126;-27
2022/05/27 05:42:08;;;;;;;9.23;3.65;;;;;;;25.58;38.88;96908.16;5134201;27;20429;-26
2022/05/27 05:44:34;;;;;;;8.93;3.08;;;;;;;25.57;39.75;96906.66;5134610;27;20019;-27
2022/05/27 05:47:01;;;;;;;8.05;3.67;;;;;;;25.48;39.52;96896.59;5134108;27;20100;-27
2022/05/27 05:49:27;;;;;;;11.30;3.13;;;;;;;25.35;40.30;96899.94;5134120;27;20031;-26
2022/05/27 05:51:55;;;;;;;5.60;2.85;;;;;;;25.51;39.58;96895.56;5134535;27;20427;-27
2022/05/27 05:54:22;;;;;;;7.47;3.20;;;;;;;25.56;39.55;96896.81;5134436;27;20023;-27
2022/05/27 05:56:49;;;;;;;7.15;3.10;;;;;;;25.47;39.11;96900.63;5129663;27;20051;-27
2022/05/27 05:59:16;;;;;;;8.38;3.17;;;;;;;25.61;39.13;96896.03;5113849;28;20040;-27
2022/05/27 06:01:42;;;;;;;6.60;2.90;;;;;;;25.62;38.85;96900.31;5113859;28;20059;-26
2022/05/27 06:04:08;;;;;;;6.78;3.88;;;;;;;25.62;38.77;96895.50;5113891;28;20516;-26
2022/05/27 06:06:33;;;;;;;7.38;3.00;;;;;;;25.65;38.79;96893.75;5113630;28;20027;-27
2022/05/27 06:08:59;;;;;;;4.45;2.80;;;;;;;25.68;38.98;96898.25;5113565;28;20027;-27
2022/05/27 06:11:24;;;;;;;6.05;3.38;;;;;;;25.69;38.46;96886.66;5113543;28;20464;-27
2022/05/27 06:13:50;;;;;;;6.78;3.60;;;;;;;25.62;39.01;96889.22;5097348;28;20035;-27
2022/05/27 06:16:18;;;;;;;6.38;3.85;;;;;;;25.64;38.60;96884.66;5092125;28;20032;-27
2022/05/27 06:18:43;;;;;;;6.43;3.10;;;;;;;25.64;38.90;96881.88;5093031;28;20107;-27
2022/05/27 06:21:09;;;;;;;5.80;3.15;;;;;;;25.69;38.71;96877.56;5093137;28;20137;-27
2022/05/27 06:23:35;;;;;;;6.15;3.47;;;;;;;25.66;39.06;96875.81;5092997;28;20426;-27
2022/05/27 06:26:09;;;;;;;9.05;3.85;;;;;;;25.65;38.51;96882.63;5091687;28;20043;-27
2022/05/27 06:36:50;;;;;;;8.45;2.95;;;;;;;25.61;39.06;96880.13;5091554;28;20022;-27
2022/05/27 06:39:16;;;;;;;6.90;3.38;;;;;;;25.67;38.80;96874.53;5092706;28;20047;-27
2022/05/27 06:41:43;;;;;;;5.10;3.20;;;;;;;25.67;38.85;96882.88;5092296;28;20028;-27
2022/05/27 06:44:09;;;;;;;7.63;3.60;;;;;;;25.62;38.78;96873.28;5092913;28;20032;-27
2022/05/27 06:46:36;;;;;;;5.78;3.00;;;;;;;25.65;38.55;96877.06;5092754;28;20121;-26
2022/05/27 06:49:02;;;;;;;11.30;3.50;;;;;;;25.66;38.99;96873.03;5101298;28;20020;-27
2022/05/27 06:51:29;;;;;;;7.72;3.20;;;;;;;25.67;38.71;96868.97;5112076;28;20016;-27
2022/05/27 06:53:55;;;;;;;6.32;2.83;;;;;;;25.61;38.77;96871.78;5109999;28;20395;-27
2022/05/27 06:56:23;;;;;;;8.57;3.38;;;;;;;25.62;38.78;96875.31;5112776;28;20023;-27
2022/05/27 06:58:48;;;;;;;5.60;3.72;;;;;;;25.65;38.77;96868.75;5131819;27;20035;-27
2022/05/27 07:01:14;;;;;;;5.55;3.38;;;;;;;25.68;38.66;96876.81;5133166;27;20498;-27
2022/05/27 07:03:40;;;;;;;7.35;3.22;;;;;;;25.72;38.86;96865.38;5132963;27;20086;-26
2022/05/27 07:06:07;;;;;;;8.20;3.67;;;;;;;25.66;38.86;96865.44;5132651;27;20015;-26
2022/05/27 07:08:33;;;;;;;4.97;2.92;;;;;;;25.64;39.00;96870.75;5132943;27;20098;-27
2022/05/27 07:10:58;;;;;;;5.55;2.63;;;;;;;25.67;38.86;96872.50;5133125;27;20038;-27
2022/05/27 07:13:24;;;;;;;6.68;2.97;;;;;;;25.70;38.96;96868.72;5132276;27;20482;-27
2022/05/27 07:15:50;;;;;;;7.50;3.20;;;;;;;25.68;39.09;96865.69;5132623;27;20019;-27
2022/05/27 07:18:16;;;;;;;7.97;3.42;;;;;;;25.67;39.03;96863.44;5132602;27;20083;-26
2022/05/27 07:20:41;;;;;;;7.07;3.30;;;;;;;25.69;38.81;96860.88;5114000;27;20127;-27
2022/05/27 07:23:07;;;;;;;7.30;2.78;;;;;;;25.69;38.99;96861.63;5132883;27;20023;-27
2022/05/27 07:25:34;;;;;;;6.22;3.28;;;;;;;25.70;38.76;96863.16;5132508;27;20374;-27
2022/05/27 07:28:00;;;;;;;5.88;2.92;;;;;;;25.71;38.94;96863.91;5132471;27;20877;-26
2022/05/27 07:30:26;;;;;;;6.25;3.50;;;;;;;25.70;38.97;96856.84;5131726;27;20110;-27
2022/05/27 07:32:52;;;;;;;5.10;3.03;;;;;;;25.66;39.28;96853.59;5132577;27;20111;-26
2022/05/27 07:35:17;;;;;;;8.90;3.30;;;;;;;25.71;39.16;96864.66;5130609;27;20473;-27
2022/05/27 07:37:43;;;;;;;7.65;3.33;;;;;;;25.72;39.08;96859.84;5132778;27;20038;-26
2022/05/27 07:40:09;;;;;;;5.82;3.03;;;;;;;25.75;38.90;96862.34;5132671;27;20044;-27
2022/05/27 07:42:34;;;;;;;5.15;3.13;;;;;;;25.80;38.85;96863.56;5132107;27;20039;-27
2022/05/27 07:45:00;;;;;;;6.13;3.13;;;;;;;25.80;38.50;96855.25;5132490;27;20363;-26
2022/05/27 07:47:25;;;;;;;7.25;2.97;;;;;;;25.80;38.81;96860.03;5132371;27;20030;-27
2022/05/27 07:49:51;;;;;;;5.55;3.15;;;;;;;25.83;38.64;96859.00;5132031;27;20542;-27
2022/05/27 07:52:16;;;;;;;15.35;3.90;;;;;;;25.44;40.15;96856.50;5132224;27;20087;-29
2022/05/27 07:54:42;;;;;;;11.55;3.28;;;;;;;25.51;40.23;96851.13;5132091;27;20653;-28
2022/05/27 07:57:23;;;;;;;6.15;2.88;;;;;;;25.69;39.79;96860.88;5132212;28;20039;-30
2022/05/27 07:59:59;;;;;;;12.43;3.17;;;;;;;25.78;39.44;96857.78;5132476;28;20023;-28
2022/05/27 08:02:25;;;;;;;9.60;3.30;;;;;;;25.73;39.82;96861.34;5131877;28;20047;-28
2022/05/27 08:04:54;;;;;;;12.40;3.35;;;;;;;25.82;39.64;96863.06;5113959;28;20445;-29
2022/05/27 08:07:20;;;;;;;7.93;3.03;;;;;;;25.82;39.39;96847.16;5131222;28;20385;-29
2022/05/27 08:09:46;;;;;;;8.30;2.90;;;;;;;25.86;39.28;96846.84;5131642;28;20049;-28
2022/05/27 08:12:12;;;;;;;12.82;3.60;;;;;;;25.85;39.24;96845.34;5129809;28;20467;-28
2022/05/27 08:14:37;;;;;;;8.63;3.00;;;;;;;25.84;38.93;96852.91;5111478;28;20428;-29
2022/05/27 08:17:04;;;;;;;13.65;3.45;;;;;;;25.82;38.77;96851.94;5111484;28;20456;-28
2022/05/27 08:19:29;;;;;;;6.63;3.03;;;;;;;25.83;38.87;96847.91;5111393;28;20026;-28
2022/05/27 08:21:55;;;;;;;10.40;3.80;;;;;;;25.83;38.66;96848.66;5111169;28;20032;-28
2022/05/27 08:24:20;;;;;;;10.38;3.15;;;;;;;25.86;38.32;96852.41;5111644;28;20033;-28
2022/05/27 08:26:49;;;;;;;8.05;3.30;;;;;;;25.86;38.63;96858.72;5111561;28;20024;-29
2022/05/27 08:29:15;;;;;;;8.75;3.10;;;;;;;25.86;38.72;96855.94;5111589;28;20455;-28
2022/05/27 08:31:41;;;;;;;9.68;3.40;;;;;;;25.83;38.66;96862.53;5110959;28;20028;-28
2022/05/27 08:39:42;;;;;;;4.80;3.08;;;;;;;25.82;38.52;96865.84;5111265;28;20034;-28
2022/05/27 08:42:35;;;;;;;7.47;2.63;;;;;;;25.83;38.33;96865.31;5110882;28;20068;-29
2022/05/27 08:45:13;;;;;;;7.20;3.00;;;;;;;25.89;38.13;96863.22;5111408;28;20020;-28
2022/05/27 08:47:51;;;;;;;9.13;3.05;;;;;;;25.88;37.86;96864.50;5111319;28;20057;-28
2022/05/27 08:50:32;;;;;;;11.10;3.05;;;;;;;25.90;37.87;96861.97;5113334;28;20348;-29
2022/05/27 08:53:08;;;;;;;8.60;3.80;;;;;;;25.87;37.74;96871.34;5133862;27;20019;-28
2022/05/27 09:01:18;;;;;;;13.75;2.80;;;;;;;25.92;37.76;96872.56;5137793;27;20026;-29
2022/05/27 09:03:49;;;;;;;8.13;2.63;;;;;;;25.91;37.69;96871.06;5137451;27;20042;-28
2022/05/27 09:06:22;;;;;;;9.90;3.30;;;;;;;25.87;37.63;96867.78;5137420;27;20058;-27
2022/05/27 09:08:47;;;;;;;7.60;2.75;;;;;;;25.85;37.78;96875.91;5137698;27;20455;-29
2022/05/27 09:11:38;;;;;;;10.88;3.22;;;;;;;25.84;37.79;96872.34;5137590;27;20030;-28
2022/05/27 09:14:14;;;;;;;12.13;2.97;;;;;;;25.84;37.72;96883.47;5137293;27;20101;-28
2022/05/27 09:17:01;;;;;;;10.50;3.10;;;;;;;25.83;37.88;96879.22;5137451;27;20390;-28
2022/05/27 09:19:55;;;;;;;10.20;3.20;;;;;;;25.81;37.80;96884.53;5137234;27;20031;-28
2022/05/27 09:22:33;;;;;;;;;;;;;;;25.79;37.94;96891.88;5137610;27;20027;-28
2022/05/27 09:25:21;;;;;;;10.95;2.65;;;;;;;25.75;38.20;96895.66;5137227;27;19990;-28
2022/05/27 09:28:05;;;;;;;14.82;3.35;;;;;;;25.84;37.91;96893.88;5137265;27;20052;-28
2022/05/27 09:30:33;;;;;;;12.30;3.05;;;;;;;25.83;38.13;96897.91;5136876;27;20030;-30
2022/05/27 09:33:03;;;;;;;9.02;3.15;;;;;;;25.84;38.12;96891.09;5136963;27;20058;-27
2022/05/27 09:35:33;;;;;;;12.35;3.38;;;;;;;25.89;38.33;96888.25;5118398;27;20027;-28
2022/05/27 09:38:04;;;;;;;7.90;3.42;;;;;;;25.85;38.13;96893.31;5136982;27;20027;-28
2022/05/27 09:40:46;;;;;;;9.55;3.65;;;;;;;25.83;38.56;96893.09;5136562;27;20102;-29
2022/05/27 09:43:51;;;;;;;11.25;3.10;;;;;;;25.85;38.61;96895.34;5136865;27;20019;-28
2022/05/27 09:46:28;;;;;;;13.75;3.58;;;;;;;25.87;38.47;96898.38;5136721;27;20028;-28
2022/05/27 09:48:58;;;;;;;8.02;3.47;;;;;;;25.88;38.67;96903.41;5136667;27;20026;-29
2022/05/27 09:51:26;;;;;;;9.75;3.55;;;;;;;25.85;39.23;96901.66;5136684;27;20019;-29
2022/05/27 09:53:54;;;;;;;9.82;3.20;;;;;;;25.83;39.01;96897.91;5136503;27;20019;-28
2022/05/27 09:56:43;;;;;;;7.93;2.72;;;;;;;25.88;38.74;96895.06;5137114;27;20076;-28
2022/05/27 09:59:20;;;;;;;9.85;3.10;;;;;;;25.91;38.80;96891.25;5136528;27;20042;-28
2022/05/27 10:01:46;;;;;;;7.35;3.25;;;;;;;25.90;39.11;96886.97;5136126;27;20015;-29
2022/05/27 10:04:14;;;;;;;8.48;3.35;;;;;;;25.93;39.10;96885.19;5136462;27;20030;-28
2022/05/27 10:06:40;;;;;;;8.52;3.22;;;;;;;25.98;39.39;96885.13;5136205;27;20026;-29
2022/05/27 10:09:27;;;;;;;11.27;3.30;;;;;;;25.92;39.78;96878.88;5136300;27;20022;-30
2022/05/27 10:11:55;;;;;;;18.40;3.80;;;;;;;25.90;40.23;96875.84;5135300;27;20062;-29
2022/05/27 10:14:23;;;;;;;9.60;3.58;;;;;;;26.01;39.80;96875.00;5136081;27;20034;-29
2022/05/27 10:17:27;;;;;;;10.77;3.40;;;;;;;26.03;39.66;96862.09;5135948;27;20027;-29
2022/05/27 10:20:11;;;;;;;12.40;3.42;;;;;;;25.96;39.99;96857.13;5135923;27;20034;-29
2022/05/27 10:22:37;;;;;;;10.98;4.50;;;;;;;26.02;39.95;96863.38;5135878;27;20019;-28
2022/05/27 10:25:07;;;;;;;11.90;3.85;;;;;;;26.02;40.16;96860.59;5136454;27;20026;-29
2022/05/27 10:27:43;;;;;;;10.65;4.00;;;;;;;26.03;39.99;96853.75;5135910;27;20052;-28
2022/05/27 10:30:09;;;;;;;11.07;3.65;;;;;;;26.07;39.90;96851.47;5135711;27;20023;-28
2022/05/27 10:32:41;;;;;;;9.32;3.53;;;;;;;26.00;39.90;96849.25;5135817;27;20127;-28
2022/05/27 10:35:16;;;;;;;10.43;3.35;;;;;;;26.13;39.15;96846.59;5135704;27;20055;-28
2022/05/27 10:38:00;;;;;;;13.18;3.17;;;;;;;26.09;39.27;96843.34;5132359;27;20042;-29
2022/05/27 10:40:31;;;;;;;13.20;3.40;;;;;;;26.06;39.28;96840.84;5132450;27;20038;-28
2022/05/27 10:43:23;;;;;;;10.50;4.20;;;;;;;26.12;38.69;96831.19;5132479;27;20034;-28
2022/05/27 10:46:03;;;;;;;7.75;3.42;;;;;;;26.12;39.05;96831.19;5132368;27;20027;-29
2022/05/27 10:48:43;;;;;;;10.20;3.83;;;;;;;26.13;39.07;96831.94;5132289;27;20026;-29
2022/05/27 10:51:33;;;;;;;10.45;3.45;;;;;;;26.18;38.95;96827.59;5132355;27;20087;-29
2022/05/27 10:54:10;;;;;;;9.88;3.72;;;;;;;26.13;38.74;96826.38;5132761;27;20033;-29
2022/05/27 11:03:09;;;;;;;9.48;3.53;;;;;;;26.16;38.36;96813.47;5132879;27;20064;-29
2022/05/27 11:05:51;;;;;;;8.73;3.65;;;;;;;26.23;37.85;96812.88;5132615;27;20051;-29
2022/05/27 11:08:23;;;;;;;11.73;3.72;;;;;;;26.24;37.69;96817.16;5133182;27;20102;-29
2022/05/27 11:11:12;;;;;;;8.60;3.17;;;;;;;26.31;37.54;96813.84;5132947;27;20106;-28
2022/05/27 11:17:15;;;;;;;11.98;3.10;;;;;;;26.29;38.17;96808.81;5132384;27;20470;-28
2022/05/27 11:19:53;;;;;;;13.27;3.35;;;;;;;26.35;38.11;96797.59;5132871;27;20046;-28
2022/05/27 11:22:24;;;;;;;17.08;3.45;;;;;;;26.33;37.64;96794.63;5130965;27;20032;-28
2022/05/27 11:25:19;;;;;;;16.63;4.13;;;;;;;26.31;37.97;96797.16;5132801;27;20042;-29
2022/05/27 11:27:50;;;;;;;12.05;3.63;;;;;;;26.32;37.99;96788.28;5133030;27;20058;-29
2022/05/27 11:30:50;;;;;;;10.55;3.08;;;;;;;26.36;38.07;96783.19;5132678;27;20202;-28
2022/05/27 11:33:26;;;;;;;17.85;4.57;;;;;;;26.36;38.17;96787.97;5132732;27;20027;-29
2022/05/27 11:36:09;;;;;;;8.00;3.22;;;;;;;26.36;38.17;96771.31;5134614;27;20023;-28
2022/05/27 11:38:53;;;;;;;11.43;3.60;;;;;;;26.42;38.16;96777.56;5134568;27;20462;-28
2022/05/27 11:41:57;;;;;;;9.65;3.35;;;;;;;26.34;37.91;96774.59;5134720;27;20028;-29
2022/05/27 11:44:22;;;;;;;;;;;;;;;26.42;37.94;96760.88;5134938;27;20030;-29
2022/05/27 11:46:57;;;;;;;14.40;3.80;;;;;;;26.39;37.52;96762.66;5134248;27;19907;-28
2022/05/27 11:49:43;;;;;;;12.05;3.20;;;;;;;26.37;37.90;96762.44;5134707;27;20247;-29
2022/05/27 11:52:35;;;;;;;12.20;3.80;;;;;;;26.40;37.99;96758.63;5134380;27;20019;-28
2022/05/27 11:55:18;;;;;;;13.60;3.47;;;;;;;26.42;37.49;96756.06;5134331;27;20054;-28
2022/05/27 11:57:47;;;;;;;;;;;;;;;26.45;37.51;96751.50;5134477;27;20395;-29
2022/05/27 12:00:16;;;;;;;12.30;4.32;;;;;;;26.49;37.75;96757.47;5134204;28;19912;-28
2022/05/27 12:03:05;;;;;;;14.63;5.50;;;;;;;26.46;37.91;96747.41;5115717;28;20053;-28
2022/05/27 12:05:44;;;;;;;11.27;3.47;;;;;;;26.36;37.65;96743.50;5134293;28;20034;-29
2022/05/27 12:08:23;;;;;;;10.07;3.40;;;;;;;26.36;37.57;96743.50;5134359;28;20024;-29
2022/05/27 12:11:11;;;;;;;22.25;4.38;;;;;;;26.51;37.12;96729.16;5134331;28;20481;-28
2022/05/27 12:13:45;;;;;;;9.93;3.20;;;;;;;26.43;37.17;96732.53;5134324;28;20568;-28
2022/05/27 12:16:17;;;;;;;14.30;3.92;;;;;;;26.47;37.02;96726.66;5134066;28;20033;-28
2022/05/27 12:18:45;;;;;;;15.90;4.05;;;;;;;26.40;37.17;96722.47;5134031;28;20019;-29
2022/05/27 12:21:15;;;;;;;13.48;4.10;;;;;;;26.46;36.71;96714.78;5133844;28;20536;-28
2022/05/27 12:23:47;;;;;;;11.45;3.65;;;;;;;26.50;36.58;96725.63;5134145;28;20108;-28
2022/05/27 12:26:14;;;;;;;11.48;3.33;;;;;;;26.50;36.79;96708.19;5134482;28;20107;-28
2022/05/27 12:28:43;;;;;;;13.38;3.47;;;;;;;26.48;36.93;96705.91;5134198;27;20031;-28